ADDS METAR Data INFO
IDs: Format: Raw Decoded Include TAF

Data at: 0750 UTC 17 Oct 2017

KFWC 170735Z AUTO 00000KT 10SM CLR 05/05 A3031 RMK AO1 T00520050
KFWC 170715Z AUTO 00000KT 10SM CLR 06/05 A3031 RMK AO1 T00550052
KFWC 170655Z AUTO 00000KT 10SM CLR 05/05 A3031 RMK AO1 T00540051
KFWC 170635Z AUTO 00000KT 10SM CLR 05/05 A3031 RMK AO1 T00510048
KFWC 170615Z AUTO 00000KT 10SM CLR 06/05 A3031 RMK AO1 T00550051
KFWC 170555Z AUTO 00000KT 10SM CLR 06/05 A3031 RMK AO1 T00560051 10118 20056 401780042
KFWC 170535Z AUTO 00000KT 10SM CLR 06/06 A3031 RMK AO1 T00610055
KFWC 170515Z AUTO 00000KT 10SM CLR 06/05 A3031 RMK AO1 T00600051
KFWC 170455Z AUTO 00000KT 10SM CLR 06/06 A3032 RMK AO1 T00640056
KFWC 170435Z AUTO 00000KT 10SM CLR 07/05 A3032 RMK AO1 T00650054
KFWC 170415Z AUTO 00000KT 10SM CLR 07/05 A3032 RMK AO1 T00660052
KFWC 170355Z AUTO 00000KT 10SM CLR 07/05 A3032 RMK AO1 T00700053
KFWC 170335Z AUTO 00000KT 10SM CLR 07/05 A3032 RMK AO1 T00720052
KFWC 170315Z AUTO 00000KT 10SM CLR 07/05 A3032 RMK AO1 T00730050
KFWC 170255Z AUTO 00000KT 10SM CLR 08/06 A3032 RMK AO1 T00760060
KFWC 170235Z AUTO 00000KT 10SM CLR 08/06 A3031 RMK AO1 T00800062
KFWC 170215Z AUTO 00000KT 10SM CLR 09/05 A3031 RMK AO1 T00850050
KFWC 170155Z AUTO 00000KT 10SM CLR 09/06 A3031 RMK AO1 T00880056
KFWC 170135Z AUTO 00000KT 10SM CLR 09/06 A3031 RMK AO1 T00890058
KFWC 170115Z AUTO 00000KT 10SM CLR 10/06 A3031 RMK AO1 T00950058
KFWC 170055Z AUTO 00000KT 10SM CLR 10/07 A3031 RMK AO1 T01000067
KFWC 170035Z AUTO 00000KT 10SM CLR 11/07 A3031 RMK AO1 T01050068
KFWC 170015Z AUTO 00000KT 10SM CLR 11/06 A3030 RMK AO1 T01110059
KFWC 162355Z AUTO 00000KT 10SM CLR 12/05 A3030 RMK AO1 T01210049 10178 20121
KFWC 162335Z AUTO 00000KT 10SM CLR 13/04 A3030 RMK AO1 T01320036
KFWC 162315Z AUTO 00000KT 10SM CLR 15/03 A3029 RMK AO1 T01450030
KFWC 162255Z AUTO 00000KT 10SM CLR 16/03 A3029 RMK AO1 T01550031
KFWC 162235Z AUTO 00000KT 10SM CLR 17/02 A3030 RMK AO1 T01650023
KFWC 162215Z AUTO 00000KT 10SM CLR 17/02 A3029 RMK AO1 T01710019
KFWC 162155Z AUTO 33003KT 10SM CLR 17/02 A3030 RMK AO1 T01710016
KFWC 162135Z AUTO 00000KT 10SM CLR 17/01 A3030 RMK AO1 T01740013
KFWC 162115Z AUTO 00000KT 10SM CLR 17/01 A3031 RMK AO1 T01740012
KFWC 162055Z AUTO 00000KT 10SM CLR 17/01 A3031 RMK AO1 T01730013
KFWC 162035Z AUTO 04003KT 10SM CLR 18/01 A3031 RMK AO1 T01770013
KFWC 162015Z AUTO 26003KT 10SM CLR 17/01 A3032 RMK AO1 T01720009
KFWC 161955Z AUTO 00000KT 10SM CLR 17/01 A3032 RMK AO1 T01710008
KFWC 161935Z AUTO 34003KT 10SM CLR 17/02 A3032 RMK AO1 T01690015
KFWC 161915Z AUTO 00000KT 7SM CLR 17/02 A3033 RMK AO1 T01720024
KFWC 161855Z AUTO 35004KT 10SM CLR 17/03 A3034 RMK AO1 T01710025
KFWC 161835Z AUTO 34003KT 10SM CLR 17/03 A3035 RMK AO1 T01660025
KFWC 161815Z AUTO 04003KT 10SM CLR 16/02 A3035 RMK AO1 T01630022
KFWC 161755Z AUTO 06003KT 10SM CLR 17/03 A3036 RMK AO1 T01650026 10167 20042
KFWC 161735Z AUTO 35003KT 10SM CLR 16/03 A3037 RMK AO1 T01640025
KFWC 161715Z AUTO 01003KT 10SM CLR 16/02 A3038 RMK AO1 T01580015
KFWC 161655Z AUTO 32003KT 10SM CLR 16/02 A3038 RMK AO1 T01550023
KFWC 161635Z AUTO 00000KT 10SM CLR 15/03 A3039 RMK AO1 T01470028
KFWC 161615Z AUTO 02004KT 10SM CLR 15/03 A3039 RMK AO1 T01460025
KFWC 161555Z AUTO 04004KT 10SM CLR 14/03 A3039 RMK AO1 T01410033
KFWC 161535Z AUTO 36004KT 10SM CLR 14/04 A3040 RMK AO1 T01350042
KFWC 161515Z AUTO 36005KT 10SM CLR 13/05 A3040 RMK AO1 T01280046
KFWC 161455Z AUTO 34005KT 10SM CLR 13/05 A3039 RMK AO1 T01260049
KFWC 161435Z AUTO 34004KT 10SM CLR 12/06 A3039 RMK AO1 T01180055
KFWC 161415Z AUTO 01004KT 10SM CLR 11/06 A3039 RMK AO1 T01110059
KFWC 161355Z AUTO 34003KT 10SM CLR 10/06 A3038 RMK AO1 T00980055
KFWC 161335Z AUTO 00000KT 10SM CLR 09/06 A3038 RMK AO1 T00870058
KFWC 161315Z AUTO 35003KT 10SM CLR 08/05 A3037 RMK AO1 T00790054
KFWC 161255Z AUTO 00000KT 10SM CLR 07/05 A3036 RMK AO1 T00670054
KFWC 161235Z AUTO 00000KT 10SM CLR 06/05 A3036 RMK AO1 T00550050
KFWC 161215Z AUTO 00000KT 10SM CLR 04/04 A3035 RMK AO1 T00420040
KFWC 161155Z AUTO 00000KT 10SM CLR 05/04 A3035 RMK AO1 70031 T00450041 10095 20045
KFWC 161135Z AUTO 00000KT 10SM CLR 05/04 A3035 RMK AO1 T00510043
KFWC 161115Z AUTO 00000KT 10SM CLR 06/05 A3034 RMK AO1 T00560046
KFWC 161055Z AUTO 00000KT 10SM CLR 06/05 A3034 RMK AO1 T00630047
KFWC 161035Z AUTO 00000KT 10SM CLR 07/05 A3033 RMK AO1 T00660048
KFWC 161015Z AUTO 00000KT 10SM CLR 07/05 A3033 RMK AO1 T00700049
KFWC 160955Z AUTO 33003KT 10SM CLR 07/05 A3033 RMK AO1 T00700050
KFWC 160935Z AUTO 00000KT 10SM CLR 07/05 A3032 RMK AO1 T00720050
KFWC 160915Z AUTO 00000KT 10SM CLR 07/05 A3032 RMK AO1 T00720051
KFWC 160855Z AUTO 00000KT 10SM CLR 08/05 A3032 RMK AO1 T00750053
KFWC 160835Z AUTO 00000KT 10SM CLR 08/05 A3031 RMK AO1 T00780054
KFWC 160815Z AUTO 00000KT 10SM CLR 08/06 A3031 RMK AO1 T00790055
KFWC 160755Z AUTO 00000KT 10SM CLR 08/06 A3031 RMK AO1 T00810055
KFWC 160735Z AUTO 00000KT 10SM CLR 09/06 A3031 RMK AO1 T00850055
KFWC 160715Z AUTO 00000KT 10SM CLR 09/05 A3031 RMK AO1 T00860053
KFWC 160655Z AUTO 00000KT 10SM CLR 09/05 A3031 RMK AO1 T00900048
KFWC 160635Z AUTO 00000KT 10SM CLR 09/05 A3031 RMK AO1 T00890045
KFWC 160615Z AUTO 00000KT 10SM CLR 09/04 A3030 RMK AO1 T00920042
KFWC 160555Z AUTO 00000KT 10SM CLR 10/04 A3030 RMK AO1 T00960041 10135 20096 402380096
KFWC 160535Z AUTO 00000KT 10SM CLR 10/04 A3030 RMK AO1 T01010042
KFWC 160515Z AUTO 33003KT 10SM SCT043 11/04 A3030 RMK AO1 T01050040
KFWC 160455Z AUTO 00000KT 10SM BKN043 11/04 A3030 RMK AO1 T01100040
KFWC 160435Z AUTO 32003KT 10SM SCT043 11/05 A3030 RMK AO1 T01090045
KFWC 160415Z AUTO 34003KT 10SM SCT041 11/05 A3030 RMK AO1 T01100052
KFWC 160355Z AUTO 35004KT 10SM BKN041 12/06 A3030 RMK AO1 T01150056
KFWC 160330Z AUTO 35004KT 10SM OVC041 12/06 A3029 RMK AO1 T01220059
KFWC 160315Z AUTO 35005KT 10SM OVC041 12/06 A3029 RMK AO1 T01230060
KFWC 160255Z AUTO 36004KT 10SM OVC039 13/06 A3028 RMK AO1 T01250059
KFWC 160235Z AUTO 33003KT 10SM OVC039 12/06 A3027 RMK AO1 T01230060
KFWC 160215Z AUTO 34003KT 10SM OVC039 12/06 A3027 RMK AO1 T01200060
KFWC 160155Z AUTO 33003KT 10SM BKN039 11/06 A3026 RMK AO1 T01140062
KFWC 160135Z AUTO 34003KT 10SM OVC039 12/06 A3026 RMK AO1 T01160062
KFWC 160115Z AUTO 34005KT 10SM SCT041 12/06 A3025 RMK AO1 T01200061
KFWC 160055Z AUTO 34006KT 10SM BKN041 13/06 A3025 RMK AO1 T01260062
KFWC 160035Z AUTO 34005KT 10SM OVC041 13/07 A3024 RMK AO1 T01320065
KFWC 160015Z AUTO 00000KT 10SM OVC043 14/07 A3023 RMK AO1 T01350066
KFWC 152355Z AUTO 00000KT 10SM BKN043 14/07 A3022 RMK AO1 T01350065 10165 20113
KFWC 152335Z AUTO 00000KT 10SM SCT043 14/06 A3020 RMK AO1 T01350062
KFWC 152315Z AUTO 00000KT 10SM CLR 14/06 A3020 RMK AO1 T01410064
KFWC 152255Z AUTO 00000KT 10SM CLR 15/06 A3019 RMK AO1 T01460062
KFWC 152235Z AUTO 33003KT 10SM CLR 15/07 A3018 RMK AO1 T01510065
KFWC 152215Z AUTO 34003KT 10SM CLR 16/06 A3018 RMK AO1 T01550064
KFWC 152155Z AUTO 34003KT 10SM CLR 16/07 A3017 RMK AO1 T01600070
KFWC 152135Z AUTO 31005KT 10SM CLR 16/07 A3016 RMK AO1 T01610069
KFWC 152115Z AUTO 31003KT 10SM SCT040 16/07 A3016 RMK AO1 T01640072
KFWC 152055Z AUTO 31005KT 10SM CLR 17/07 A3015 RMK AO1 T01650070
KFWC 152035Z AUTO 34004KT 10SM CLR 17/07 A3015 RMK AO1 T01650071
KFWC 152015Z AUTO 34004KT 10SM CLR 16/07 A3015 RMK AO1 T01620072
KFWC 151955Z AUTO 33004KT 10SM SCT032 16/08 A3014 RMK AO1 T01620076